Linate Airport LIML

Flugplatz Daten

Name: Linate Airport

Ident: LIML

Lat: 45,44509888

Long: 9,276740074

Platzhöhe: 353 ft

IataCode: LIN

City: Milan

Homepage: http://www.sea-aeroportimilano.it/en/

Metar

2022/08/13 16:50
LIML 131650Z 15005KT 110V180 CAVOK 29/09 Q1011 NOSIG

Taf

2022/08/13 12:00
TAF LIML 131100Z 1312/1412 18008KT CAVOK
BECMG 1316/1318 VRB05KT
Gewünschte Webcam nicht vorhanden? Dann fügen Sie eine hinzu. Sie wird dann so schnell wie möglich freigeschaltet
Url: Title: